ADDS TAF Board (Experimental) INFO Settings
IDs: Format: Expanded Condensed

KJFK - New York/Kennedy Int, NY, US

Issued at 1120 UTC 27 Jul 2016
Updated at 1324 UTC 27 Jul 2016
Time1251Z 27/14Z 27/15Z 27/16Z 27/17Z 27/18Z 27/19Z 27/20Z 27/21Z 27/22Z 27/23Z 28/00Z 28/01Z 28/02Z
Type OBS PRVL PRVL PRVL PRVL PRVL PRVL PRVL PRVL PRVL PRVL PRVL PRVL PRVL
VIS 10 >6 >6 >6 >6 >6 >6 >6 >6 >6 >6 >6 >6 >6
CIG -- 250 250 250 -- -- -- -- -- -- -- -- -- --
Cover SCT BKN BKN BKN SCT SCT SCT SCT SCT SCT SCT SCT SCT SCT
FltCat VFR VFR VFR VFR VFR VFR VFR VFR VFR VFR VFR VFR VFR VFR
WX -- -- -- -- -- -- -- -- -- -- -- -- -- --
WDir 50 360 VRB VRB 180 180 180 180 180 180 180 180 180 200
WSpd 6 6 5 5 7 7 7 12 12 12 12 12 12 7
WGst -- -- -- -- -- -- -- -- -- -- -- -- -- --
R04/22
XWnd -2 3 VRB VRB -4 -4 -4 -6 -6 -6 -6 -6 -6 -1
HWnd 6 5 VRB VRB -6 -6 -6 -10 -10 -10 -10 -10 -10 -7
R13/31
XWnd 6 5 VRB VRB -6 -6 -6 -10 -10 -10 -10 -10 -10 -7
HWnd 2 -3 VRB VRB 4 4 4 6 6 6 6 6 6 1

Raw TAF
KJFK 271120Z 2712/2818 36006KT P6SM SCT150 BKN250
  FM271500 VRB05KT P6SM FEW150 BKN250
  FM271700 18007KT P6SM FEW060 SCT250
  FM272000 18012KT P6SM FEW060 SCT250
  FM280200 20007KT P6SM SCT250
  FM280600 18004KT P6SM SCT250
  FM281500 18007KT P6SM SCT250


Raw METAR
KJFK 271251Z 05006KT 10SM FEW070 FEW140 SCT250 28/16 A2996 RMK AO2 SLP146 T02780156
KJFK 271151Z 02006KT 10SM FEW070 SCT140 BKN250 26/16 A2996 RMK AO2 SLP145 T02610156 10261 20239 51004
KJFK 271051Z 01003KT 10SM FEW065 FEW140 BKN240 24/16 A2996 RMK AO2 SLP145 T02440161

METAR Board
Radar Display
Forecast Discussion

TAF Board Legend

Potential Impact
Threat None Slight Moderate High
Visibility (sm) ≥5.1 5.1>X≥3 3>X≥1 <1
Ceiling (100 ft) ≥30.1 30.1>X≥10 10>X≥5 <5
Wind Speed (kt) <10 10≤X<20 20≤X<30 ≥30
Wind Gust (kt) <15 15≤X<25 25≤X<35 ≥35
Weather No Wx Reported VCTS,-TS,-FZRA,SN TS,FZRA +TS,+FZRA,+SN